Time;durP1;ratioP1;P1;durP2;ratioP2;P2;SDS_P1;SDS_P2;PMS_P1;PMS_P2;Temp;Humidity;BMP_temperature;BMP_pressure;BME280_temperature;BME280_humidity;BME280_pressure;Samples;Min_cycle;Max_cycle;Signal;HPM_P1;HPM_P2
2022/03/16 00:01:38;;;;;;;11.73;10.23;;;8.70;99.90;;;;;;5053082;28;20198;-80
2022/03/16 00:04:04;;;;;;;17.70;10.68;;;8.60;99.90;;;;;;5034726;28;20207;-80
2022/03/16 00:06:29;;;;;;;16.17;10.98;;;8.60;99.90;;;;;;5035078;28;20194;-81
2022/03/16 00:08:55;;;;;;;13.20;11.10;;;8.50;99.90;;;;;;5053041;28;20258;-79
2022/03/16 00:11:21;;;;;;;21.50;12.27;;;8.60;99.90;;;;;;5057363;28;20264;-80
2022/03/16 00:13:48;;;;;;;21.45;15.60;;;8.40;99.90;;;;;;5047058;28;20620;-79
2022/03/16 00:16:13;;;;;;;25.25;18.23;;;8.50;99.90;;;;;;5046048;28;20203;-82
2022/03/16 00:18:40;;;;;;;25.98;20.00;;;8.60;99.90;;;;;;5043808;28;20168;-81
2022/03/16 00:21:07;;;;;;;24.48;18.20;;;8.80;99.90;;;;;;5042997;28;20697;-83
2022/03/16 00:23:38;;;;;;;18.42;15.00;;;8.80;99.90;;;;;;5044231;28;20210;-78
2022/03/16 00:26:03;;;;;;;18.92;14.23;;;8.80;99.90;;;;;;5043602;28;20689;-79
2022/03/16 00:28:29;;;;;;;14.40;11.77;;;8.60;99.90;;;;;;5065173;28;20203;-82
2022/03/16 00:30:57;;;;;;;17.58;12.32;;;8.60;99.90;;;;;;5064508;28;20174;-80
2022/03/16 00:33:29;;;;;;;14.30;10.80;;;8.70;99.90;;;;;;5064363;28;20562;-79
2022/03/16 00:35:54;;;;;;;14.43;11.07;;;8.80;99.90;;;;;;5029552;28;20199;-80
2022/03/16 00:38:20;;;;;;;15.60;12.85;;;8.80;99.90;;;;;;5043379;28;20276;-80
2022/03/16 00:40:47;;;;;;;13.35;11.80;;;8.90;99.90;;;;;;5041168;28;20194;-80
2022/03/16 00:43:14;;;;;;;11.23;10.10;;;8.90;99.90;;;;;;5059882;28;20675;-79
2022/03/16 00:45:40;;;;;;;17.08;11.70;;;8.60;99.90;;;;;;5062070;28;20210;-79
2022/03/16 00:48:06;;;;;;;15.30;11.98;;;8.50;99.90;;;;;;5058877;28;20174;-82
2022/03/16 00:50:32;;;;;;;16.17;11.90;;;8.50;99.90;;;;;;5058054;28;20191;-80
2022/03/16 00:52:59;;;;;;;15.80;12.52;;;8.40;99.90;;;;;;5055698;28;20159;-81
2022/03/16 00:55:24;;;;;;;14.25;11.55;;;8.30;99.90;;;;;;5061774;28;20202;-79
2022/03/16 00:57:50;;;;;;;15.98;11.57;;;8.30;99.90;;;;;;5062035;28;20175;-81
2022/03/16 01:00:16;;;;;;;13.05;11.35;;;8.30;99.90;;;;;;5052841;28;20163;-80
2022/03/16 01:02:41;;;;;;;15.60;12.82;;;8.40;99.90;;;;;;5035032;28;20215;-83
2022/03/16 01:05:07;;;;;;;21.73;13.25;;;8.30;99.90;;;;;;5053223;28;20159;-83
2022/03/16 01:07:33;;;;;;;16.17;11.75;;;8.20;99.90;;;;;;5052957;28;20187;-81
2022/03/16 01:09:59;;;;;;;19.63;12.73;;;8.20;99.90;;;;;;5053300;28;20163;-80
2022/03/16 01:12:25;;;;;;;19.10;12.52;;;8.30;99.90;;;;;;5052767;28;20232;-79
2022/03/16 01:14:51;;;;;;;19.42;11.32;;;8.40;99.90;;;;;;5052788;28;20163;-83
2022/03/16 01:17:16;;;;;;;20.17;13.27;;;8.30;99.90;;;;;;5052807;28;20686;-81
2022/03/16 01:19:42;;;;;;;25.52;12.85;;;8.40;99.90;;;;;;5035257;28;20171;-80
2022/03/16 01:22:08;;;;;;;14.48;12.00;;;8.40;99.90;;;;;;5053644;28;20167;-83
2022/03/16 01:24:34;;;;;;;19.08;13.18;;;8.20;99.90;;;;;;5053930;28;20174;-82
2022/03/16 01:27:01;;;;;;;22.50;13.73;;;8.30;99.90;;;;;;5053740;28;20191;-80
2022/03/16 01:29:27;;;;;;;17.05;13.15;;;8.50;99.90;;;;;;5065287;28;20174;-79
2022/03/16 01:31:53;;;;;;;15.45;12.68;;;8.50;99.90;;;;;;5065580;28;20163;-83
2022/03/16 01:34:19;;;;;;;23.00;14.15;;;8.50;99.90;;;;;;5065064;28;20209;-86
2022/03/16 01:36:45;;;;;;;17.08;12.57;;;8.30;99.90;;;;;;5060420;28;20272;-79
2022/03/16 01:39:11;;;;;;;15.63;13.32;;;8.10;99.90;;;;;;5052767;28;20159;-79
2022/03/16 01:41:36;;;;;;;20.60;13.18;;;8.10;99.90;;;;;;5053231;28;20171;-81
2022/03/16 01:44:03;;;;;;;15.23;12.13;;;7.90;99.90;;;;;;5034618;28;20222;-81
2022/03/16 01:46:28;;;;;;;15.15;12.00;;;7.80;99.90;;;;;;5052121;28;20187;-83
2022/03/16 01:48:54;;;;;;;17.75;13.52;;;7.70;99.90;;;;;;5034533;28;20220;-79
2022/03/16 01:51:21;;;;;;;17.65;13.15;;;7.80;99.90;;;;;;5053287;28;20237;-79
2022/03/16 01:53:47;;;;;;;14.50;12.00;;;8.00;99.90;;;;;;5038125;28;20171;-79
2022/03/16 01:56:16;;;;;;;18.35;12.93;;;7.90;99.90;;;;;;5037733;28;20183;-79
2022/03/16 01:58:42;;;;;;;17.75;13.30;;;7.80;99.90;;;;;;5037393;28;20171;-79
2022/03/16 02:01:08;;;;;;;18.77;12.32;;;7.80;99.90;;;;;;5041661;28;20171;-81
2022/03/16 02:03:33;;;;;;;15.43;13.45;;;7.80;99.90;;;;;;5041506;28;20207;-84
2022/03/16 02:06:00;;;;;;;20.02;12.63;;;7.90;99.90;;;;;;5058419;28;20179;-81
2022/03/16 02:08:29;;;;;;;16.65;12.63;;;7.90;99.90;;;;;;5056349;28;20203;-79
2022/03/16 02:10:55;;;;;;;16.23;12.57;;;7.80;99.90;;;;;;5038560;28;20232;-80
2022/03/16 02:13:21;;;;;;;16.45;13.38;;;7.70;99.90;;;;;;5056017;28;20589;-80
2022/03/16 02:15:49;;;;;;;23.85;13.07;;;7.70;99.90;;;;;;5039996;28;20187;-82
2022/03/16 02:18:19;;;;;;;19.98;14.25;;;7.80;99.90;;;;;;5061909;28;20171;-82
2022/03/16 02:20:51;;;;;;;15.98;13.77;;;7.90;99.90;;;;;;5058880;28;20246;-79
2022/03/16 02:23:17;;;;;;;14.45;12.18;;;7.60;99.90;;;;;;5057967;28;20244;-80
2022/03/16 02:25:54;;;;;;;19.83;14.60;;;7.70;99.90;;;;;;5041900;28;20190;-81
2022/03/16 02:28:20;;;;;;;14.15;11.85;;;7.70;99.90;;;;;;5039633;28;20246;-79
2022/03/16 02:30:47;;;;;;;21.50;13.48;;;7.50;99.90;;;;;;5058831;28;20175;-81
2022/03/16 02:33:12;;;;;;;16.27;13.60;;;7.40;99.90;;;;;;5039967;28;20642;-81
2022/03/16 02:35:38;;;;;;;15.60;12.27;;;7.50;99.90;;;;;;5057890;28;20194;-81
2022/03/16 02:38:06;;;;;;;14.55;12.55;;;7.40;99.90;;;;;;5039967;28;20171;-80
2022/03/16 02:40:33;;;;;;;21.73;14.07;;;7.40;99.90;;;;;;5039539;28;20159;-80
2022/03/16 02:43:03;;;;;;;15.82;12.20;;;7.40;99.90;;;;;;5059014;28;20268;-81
2022/03/16 02:45:29;;;;;;;19.13;13.45;;;7.50;99.90;;;;;;5057684;28;20243;-82
2022/03/16 02:47:55;;;;;;;17.17;14.07;;;7.70;99.90;;;;;;5039107;28;20171;-80
2022/03/16 02:50:21;;;;;;;17.77;13.43;;;7.70;99.90;;;;;;5056854;28;20170;-85
2022/03/16 02:52:48;;;;;;;16.88;13.27;;;7.60;99.90;;;;;;5056120;28;20175;-80
2022/03/16 02:55:14;;;;;;;13.88;12.05;;;7.40;99.90;;;;;;5055430;28;20164;-80
2022/03/16 02:57:40;;;;;;;18.23;13.82;;;7.40;99.90;;;;;;5037338;28;20201;-81
2022/03/16 03:00:09;;;;;;;18.33;12.65;;;7.40;99.90;;;;;;5038109;28;20160;-80
2022/03/16 03:02:37;;;;;;;16.30;12.35;;;7.30;99.90;;;;;;5040555;28;20576;-81
2022/03/16 03:05:03;;;;;;;15.70;12.45;;;7.40;99.90;;;;;;5055010;28;20229;-84
2022/03/16 03:07:29;;;;;;;14.15;12.55;;;7.30;99.90;;;;;;5055824;28;20195;-82
2022/03/16 03:09:54;;;;;;;15.07;12.60;;;7.40;99.90;;;;;;5055204;28;20168;-80
2022/03/16 03:12:20;;;;;;;24.38;12.73;;;7.40;99.90;;;;;;5055630;28;20183;-81
2022/03/16 03:14:45;;;;;;;16.17;12.98;;;7.30;99.90;;;;;;5055901;28;20175;-80
2022/03/16 03:17:11;;;;;;;19.15;13.50;;;7.30;99.90;;;;;;5056668;28;20210;-80
2022/03/16 03:19:37;;;;;;;24.33;14.32;;;7.30;99.90;;;;;;5040305;28;20178;-82
2022/03/16 03:22:05;;;;;;;18.98;13.57;;;7.50;99.90;;;;;;5038692;28;20171;-84
2022/03/16 03:24:34;;;;;;;17.00;13.63;;;7.50;99.90;;;;;;5042186;28;20171;-81
2022/03/16 03:26:59;;;;;;;17.42;13.30;;;7.40;99.90;;;;;;5055576;28;20559;-81
2022/03/16 03:29:25;;;;;;;16.05;12.40;;;7.40;99.90;;;;;;5038272;28;20171;-81
2022/03/16 03:31:51;;;;;;;18.60;13.20;;;7.50;99.90;;;;;;5055035;28;20332;-79
2022/03/16 03:34:16;;;;;;;21.08;12.43;;;7.50;99.90;;;;;;5055395;28;20892;-79
2022/03/16 03:36:43;;;;;;;17.98;13.00;;;7.40;99.90;;;;;;5056222;28;20195;-81
2022/03/16 03:39:09;;;;;;;14.25;12.13;;;7.50;99.90;;;;;;5056068;28;20254;-80
2022/03/16 03:41:35;;;;;;;17.30;12.90;;;7.50;99.90;;;;;;5037170;28;20167;-85
2022/03/16 03:44:01;;;;;;;17.35;13.15;;;7.50;99.90;;;;;;5037304;28;20288;-81
2022/03/16 03:46:27;;;;;;;14.13;11.95;;;7.60;99.90;;;;;;5037201;28;20274;-80
2022/03/16 03:48:53;;;;;;;15.20;12.27;;;7.60;99.90;;;;;;5037222;28;20205;-80
2022/03/16 03:51:18;;;;;;;15.82;11.65;;;7.70;99.90;;;;;;5055963;28;20612;-80
2022/03/16 03:53:44;;;;;;;16.08;11.50;;;7.60;99.90;;;;;;5055464;28;20266;-79
2022/03/16 03:56:10;;;;;;;14.93;12.52;;;7.50;99.90;;;;;;5055523;28;20523;-81
2022/03/16 03:58:37;;;;;;;13.50;10.57;;;7.70;99.90;;;;;;5038278;28;20266;-80
2022/03/16 04:01:03;;;;;;;12.90;10.55;;;8.10;99.90;;;;;;5053808;28;20222;-80
2022/03/16 04:03:29;;;;;;;17.52;11.82;;;8.20;99.90;;;;;;5053525;28;20242;-79
2022/03/16 04:05:55;;;;;;;15.43;12.32;;;8.30;99.90;;;;;;5055309;28;20211;-84
2022/03/16 04:08:20;;;;;;;18.02;10.93;;;8.60;99.90;;;;;;5054401;28;20264;-80
2022/03/16 04:10:46;;;;;;;12.57;10.98;;;8.80;99.90;;;;;;5036334;28;20171;-84
2022/03/16 04:13:11;;;;;;;13.75;11.43;;;8.90;99.90;;;;;;5054061;28;20229;-81
2022/03/16 04:15:37;;;;;;;13.13;11.68;;;8.90;99.90;;;;;;5054648;28;20659;-81
2022/03/16 04:18:03;;;;;;;13.07;11.77;;;9.00;99.90;;;;;;5036751;28;20182;-80
2022/03/16 04:20:29;;;;;;;12.18;10.98;;;9.00;99.90;;;;;;5055221;28;20174;-80
2022/03/16 04:22:54;;;;;;;12.30;10.95;;;9.10;99.90;;;;;;5037179;28;20233;-82
2022/03/16 04:25:20;;;;;;;13.20;11.38;;;9.10;99.90;;;;;;5055038;28;20254;-79
2022/03/16 04:27:46;;;;;;;21.23;11.82;;;9.40;99.90;;;;;;5054153;28;20242;-79
2022/03/16 04:30:12;;;;;;;12.35;10.27;;;9.50;99.90;;;;;;5041280;28;20210;-79
2022/03/16 04:32:38;;;;;;;14.77;10.60;;;9.40;99.90;;;;;;5055709;28;20179;-79
2022/03/16 04:35:04;;;;;;;13.18;11.43;;;9.40;99.90;;;;;;5053938;28;20175;-80
2022/03/16 04:37:29;;;;;;;15.30;11.57;;;9.50;99.90;;;;;;5054653;28;20190;-79
2022/03/16 04:39:55;;;;;;;14.10;11.23;;;9.20;99.90;;;;;;5053229;28;21162;-79
2022/03/16 04:42:20;;;;;;;13.25;11.45;;;9.00;99.90;;;;;;5059096;28;20203;-79
2022/03/16 04:44:47;;;;;;;11.77;10.52;;;8.80;99.90;;;;;;5037473;28;20167;-79
2022/03/16 04:47:13;;;;;;;18.00;11.82;;;8.80;99.90;;;;;;5052840;28;20214;-79
2022/03/16 04:49:38;;;;;;;16.20;11.68;;;8.70;99.90;;;;;;5052767;28;20175;-80
2022/03/16 04:52:04;;;;;;;15.98;11.38;;;8.80;99.90;;;;;;5053113;28;20167;-78
2022/03/16 04:54:30;;;;;;;21.30;12.30;;;8.90;99.90;;;;;;5052885;28;20198;-78
2022/03/16 04:56:56;;;;;;;17.77;12.02;;;8.80;99.90;;;;;;5034454;28;20183;-78
2022/03/16 04:59:23;;;;;;;21.20;12.13;;;8.80;99.90;;;;;;5035018;28;20171;-83
2022/03/16 05:01:48;;;;;;;13.68;10.55;;;9.00;99.90;;;;;;5059057;28;20179;-80
2022/03/16 05:04:15;;;;;;;12.70;10.63;;;9.10;99.90;;;;;;5062999;28;20218;-80
2022/03/16 05:06:44;;;;;;;12.30;10.88;;;9.10;99.90;;;;;;5048743;28;20198;-81
2022/03/16 05:09:10;;;;;;;18.40;11.98;;;9.00;99.90;;;;;;5067192;28;20194;-80
2022/03/16 05:11:40;;;;;;;11.15;10.02;;;9.00;99.90;;;;;;5036840;28;20182;-80
2022/03/16 05:14:09;;;;;;;13.70;10.80;;;8.90;99.90;;;;;;5066744;28;20160;-83
2022/03/16 05:16:37;;;;;;;15.18;11.90;;;8.90;99.90;;;;;;5061480;28;20230;-80
2022/03/16 05:19:03;;;;;;;15.32;10.98;;;8.80;99.90;;;;;;5049294;28;20179;-82
2022/03/16 05:21:29;;;;;;;11.13;10.02;;;9.00;99.90;;;;;;5063044;28;20167;-83
2022/03/16 05:23:54;;;;;;;14.65;10.82;;;8.70;99.90;;;;;;5055445;28;20695;-80
2022/03/16 05:26:20;;;;;;;18.02;10.90;;;8.60;99.90;;;;;;5058622;28;20175;-80
2022/03/16 05:28:46;;;;;;;12.98;10.23;;;8.70;99.90;;;;;;5068760;28;20183;-80
2022/03/16 05:31:14;;;;;;;17.50;11.40;;;8.60;99.90;;;;;;5055139;28;20239;-81
2022/03/16 05:33:41;;;;;;;12.27;10.95;;;8.60;99.90;;;;;;5038930;28;20162;-80
2022/03/16 05:36:10;;;;;;;22.65;11.23;;;8.40;99.90;;;;;;5047314;28;20195;-80
2022/03/16 05:38:43;;;;;;;17.67;11.40;;;8.20;99.90;;;;;;5074781;28;20189;-81
2022/03/16 05:41:11;;;;;;;15.38;11.23;;;8.20;99.90;;;;;;5058215;28;20266;-80
2022/03/16 05:43:37;;;;;;;19.60;11.82;;;8.10;99.90;;;;;;5046052;28;20225;-80
2022/03/16 05:46:02;;;;;;;21.90;10.40;;;8.20;99.90;;;;;;5044228;28;20602;-82
2022/03/16 05:48:28;;;;;;;15.55;10.13;;;8.30;99.90;;;;;;5056955;28;20529;-82
2022/03/16 05:50:54;;;;;;;20.52;10.60;;;8.10;99.90;;;;;;5038578;28;20167;-80
2022/03/16 05:53:19;;;;;;;15.88;11.07;;;8.00;99.90;;;;;;5039414;28;20167;-83
2022/03/16 05:55:45;;;;;;;14.55;10.82;;;8.10;99.90;;;;;;5044001;28;20201;-80
2022/03/16 05:58:10;;;;;;;22.52;11.40;;;8.00;99.90;;;;;;5067859;28;20172;-87
2022/03/16 06:00:39;;;;;;;13.35;11.50;;;7.80;99.90;;;;;;5069742;28;20163;-85
2022/03/16 06:03:05;;;;;;;12.60;10.98;;;7.70;99.90;;;;;;5065082;28;20195;-84
2022/03/16 06:05:31;;;;;;;15.60;10.93;;;7.70;99.90;;;;;;5058262;28;20213;-80
2022/03/16 06:07:56;;;;;;;20.23;11.15;;;7.80;99.90;;;;;;5056229;28;20250;-80
2022/03/16 06:10:22;;;;;;;15.02;11.30;;;8.00;99.90;;;;;;5055632;28;20168;-83
2022/03/16 06:13:00;;;;;;;28.17;10.98;;;7.90;99.90;;;;;;5055245;28;20195;-81
2022/03/16 06:15:27;;;;;;;15.80;10.65;;;7.70;99.90;;;;;;5054787;28;20526;-85
2022/03/16 06:17:58;;;;;;;18.30;11.18;;;7.80;99.90;;;;;;5054490;28;20163;-80
2022/03/16 06:20:25;;;;;;;13.95;11.07;;;7.90;99.90;;;;;;5037053;28;20164;-80
2022/03/16 06:22:50;;;;;;;17.35;12.00;;;7.90;99.90;;;;;;5054627;28;20655;-80
2022/03/16 06:25:16;;;;;;;19.50;11.48;;;8.00;99.90;;;;;;5054348;28;20174;-81
2022/03/16 06:27:42;;;;;;;23.83;11.15;;;7.70;99.90;;;;;;5036692;28;20175;-81
2022/03/16 06:30:08;;;;;;;21.63;11.55;;;7.70;99.90;;;;;;5054566;28;20225;-81
2022/03/16 06:32:34;;;;;;;17.08;11.13;;;7.80;99.90;;;;;;5036931;28;20187;-80
2022/03/16 06:35:00;;;;;;;16.13;11.30;;;7.90;99.90;;;;;;5036867;28;20198;-80
2022/03/16 06:37:25;;;;;;;19.00;12.15;;;7.70;99.90;;;;;;5035970;28;20230;-82
2022/03/16 06:39:51;;;;;;;18.10;11.93;;;7.70;99.90;;;;;;5054612;28;20913;-82
2022/03/16 06:42:16;;;;;;;16.40;11.30;;;7.80;99.90;;;;;;5054984;28;20167;-83
2022/03/16 06:44:42;;;;;;;14.40;11.15;;;7.70;99.90;;;;;;5036349;28;20266;-81
2022/03/16 06:47:08;;;;;;;25.13;12.27;;;7.60;99.90;;;;;;5054275;28;20187;-81
2022/03/16 06:49:33;;;;;;;12.57;10.50;;;7.60;99.90;;;;;;5037114;28;20229;-82
2022/03/16 06:51:59;;;;;;;14.45;11.10;;;7.60;99.90;;;;;;5055951;28;20160;-84
2022/03/16 06:54:25;;;;;;;15.93;11.30;;;7.70;99.90;;;;;;5060239;28;20222;-80
2022/03/16 06:56:50;;;;;;;19.05;11.00;;;7.60;99.90;;;;;;5047464;28;20195;-80
2022/03/16 06:59:16;;;;;;;14.60;11.57;;;7.60;99.90;;;;;;5069075;28;20160;-80
2022/03/16 07:01:42;;;;;;;14.25;12.00;;;7.70;99.90;;;;;;5060734;28;20177;-79
2022/03/16 07:04:07;;;;;;;15.73;10.60;;;7.70;99.90;;;;;;5054362;28;20290;-81
2022/03/16 07:06:33;;;;;;;58.03;14.38;;;7.70;99.90;;;;;;5036492;28;20187;-87
2022/03/16 07:08:58;;;;;;;19.40;13.05;;;7.90;99.90;;;;;;5035645;28;20175;-80
2022/03/16 07:11:24;;;;;;;25.25;12.20;;;8.10;99.90;;;;;;5036078;28;20197;-80
2022/03/16 07:16:35;;;;;;;18.73;11.85;;;8.30;99.90;;;;;;5053770;28;20564;-79
2022/03/16 07:19:00;;;;;;;27.55;11.50;;;8.10;99.90;;;;;;5053890;28;20171;-80
2022/03/16 07:21:26;;;;;;;18.63;11.57;;;8.10;99.90;;;;;;5053647;28;20164;-82
2022/03/16 07:23:52;;;;;;;21.13;12.60;;;8.00;99.90;;;;;;5036669;28;20254;-80
2022/03/16 07:26:17;;;;;;;18.70;13.40;;;8.20;99.90;;;;;;5054928;28;20223;-83
2022/03/16 07:28:43;;;;;;;16.55;12.32;;;8.30;99.90;;;;;;5054782;28;20171;-86
2022/03/16 07:31:09;;;;;;;15.50;10.80;;;8.50;99.90;;;;;;5036797;28;20205;-81
2022/03/16 07:33:35;;;;;;;16.52;11.43;;;8.50;99.90;;;;;;5036192;28;20225;-81
2022/03/16 07:36:01;;;;;;;22.63;11.93;;;8.50;99.90;;;;;;5054679;28;20274;-82
2022/03/16 07:38:28;;;;;;;113.90;32.13;;;8.60;99.90;;;;;;5060647;28;20213;-86
2022/03/16 07:40:54;;;;;;;59.08;17.10;;;8.60;99.90;;;;;;5045286;28;20203;-80
2022/03/16 07:43:20;;;;;;;50.28;21.48;;;8.60;99.90;;;;;;5038674;28;20206;-80
2022/03/16 07:45:46;;;;;;;83.13;32.35;;;8.70;99.90;;;;;;5054453;28;20195;-82
2022/03/16 07:48:12;;;;;;;69.65;22.42;;;8.80;99.90;;;;;;5053907;28;20214;-81
2022/03/16 07:50:37;;;;;;;49.05;23.23;;;8.90;99.90;;;;;;5035704;28;20167;-81
2022/03/16 07:53:04;;;;;;;70.93;26.58;;;9.20;99.90;;;;;;5053725;28;20167;-83
2022/03/16 07:55:29;;;;;;;18.35;12.70;;;9.40;99.90;;;;;;5054157;28;20216;-85
2022/03/16 07:57:55;;;;;;;27.83;15.18;;;9.50;99.90;;;;;;5054544;28;20167;-81
2022/03/16 08:00:22;;;;;;;46.08;17.98;;;9.50;99.90;;;;;;5055127;28;20170;-80
2022/03/16 08:02:48;;;;;;;75.80;23.75;;;9.70;99.90;;;;;;5054329;28;20197;-80
2022/03/16 08:05:15;;;;;;;19.25;12.75;;;9.80;99.90;;;;;;5054606;28;20171;-81
2022/03/16 08:07:41;;;;;;;39.50;16.25;;;9.70;99.90;;;;;;5054461;28;20591;-85
2022/03/16 08:10:08;;;;;;;30.98;12.65;;;9.80;99.90;;;;;;5035675;28;20204;-81
2022/03/16 08:12:35;;;;;;;27.50;11.57;;;9.70;99.90;;;;;;5042032;28;20194;-84
2022/03/16 08:15:01;;;;;;;37.97;11.57;;;9.70;99.90;;;;;;5041528;28;20163;-82
2022/03/16 08:17:26;;;;;;;16.85;10.38;;;9.80;99.90;;;;;;5041217;28;20278;-88
2022/03/16 08:19:52;;;;;;;22.80;10.73;;;10.00;99.90;;;;;;5059331;28;20186;-86
2022/03/16 08:22:44;;;;;;;21.27;10.98;;;10.00;99.90;;;;;;5056261;28;20172;-86
2022/03/16 08:25:11;;;;;;;17.25;11.93;;;9.90;99.90;;;;;;5056017;28;20543;-87
2022/03/16 08:27:39;;;;;;;14.85;10.95;;;9.90;99.90;;;;;;5053230;28;20210;-88
2022/03/16 08:30:07;;;;;;;16.67;11.18;;;10.10;99.90;;;;;;5053674;28;20167;-80
2022/03/16 08:32:33;;;;;;;14.30;11.02;;;10.20;99.90;;;;;;5057110;28;20220;-87
2022/03/16 08:34:58;;;;;;;15.25;10.75;;;10.50;99.90;;;;;;5054849;28;20167;-85
2022/03/16 08:37:24;;;;;;;16.25;11.43;;;10.70;99.90;;;;;;5055728;28;20237;-80
2022/03/16 08:39:50;;;;;;;16.17;11.00;;;10.50;99.90;;;;;;5059383;28;20163;-85
2022/03/16 08:42:16;;;;;;;21.35;11.80;;;10.70;99.90;;;;;;5056874;28;20178;-80
2022/03/16 08:44:43;;;;;;;16.10;10.35;;;11.00;99.90;;;;;;5056034;28;20171;-86
2022/03/16 08:47:16;;;;;;;20.88;10.90;;;10.90;99.90;;;;;;5055966;28;20193;-86
2022/03/16 08:49:43;;;;;;;28.45;11.70;;;11.10;99.90;;;;;;5056230;28;20206;-87
2022/03/16 08:52:10;;;;;;;16.92;11.45;;;11.40;99.90;;;;;;5057147;28;20258;-79
2022/03/16 08:54:37;;;;;;;19.38;11.60;;;11.30;99.90;;;;;;5059286;28;20167;-82
2022/03/16 08:57:03;;;;;;;28.20;10.75;;;11.30;99.90;;;;;;5057434;28;20283;-87
2022/03/16 08:59:29;;;;;;;20.85;11.30;;;11.30;99.90;;;;;;5040245;28;20195;-84
2022/03/16 09:01:55;;;;;;;21.25;12.25;;;11.50;99.90;;;;;;5058699;28;20238;-81
2022/03/16 09:04:21;;;;;;;17.88;11.45;;;11.60;99.90;;;;;;5039907;28;20206;-80
2022/03/16 09:06:48;;;;;;;21.45;11.70;;;11.70;99.90;;;;;;5054996;28;20804;-85
2022/03/16 09:09:14;;;;;;;20.10;11.23;;;11.90;99.90;;;;;;5054182;28;20663;-85
2022/03/16 09:11:40;;;;;;;19.23;11.63;;;11.90;99.90;;;;;;5057198;28;20185;-81
2022/03/16 09:14:08;;;;;;;21.63;10.75;;;12.10;99.90;;;;;;5062576;28;20246;-84
2022/03/16 09:16:34;;;;;;;22.95;11.43;;;12.00;99.90;;;;;;5043478;28;20494;-86
2022/03/16 09:19:00;;;;;;;24.05;10.57;;;12.30;99.90;;;;;;5044638;28;20171;-93
2022/03/16 09:21:26;;;;;;;21.10;11.02;;;12.30;99.90;;;;;;5045174;28;20170;-82
2022/03/16 09:23:53;;;;;;;13.23;9.98;;;12.30;99.90;;;;;;5041473;28;20195;-85
2022/03/16 09:26:21;;;;;;;25.00;10.48;;;12.30;99.90;;;;;;5040405;28;20253;-83
2022/03/16 09:28:46;;;;;;;21.08;9.82;;;12.40;99.90;;;;;;5058939;28;20185;-88
2022/03/16 09:31:12;;;;;;;19.73;12.30;;;12.40;99.90;;;;;;5042456;28;20973;-85
2022/03/16 09:33:38;;;;;;;38.20;11.35;;;12.40;99.90;;;;;;5040541;28;20332;-82
2022/03/16 09:36:08;;;;;;;14.07;9.82;;;12.60;99.90;;;;;;5024518;28;20199;-84
2022/03/16 09:38:34;;;;;;;11.77;9.70;;;12.40;99.90;;;;;;5045965;28;20195;-79
2022/03/16 09:41:01;;;;;;;14.75;11.65;;;12.60;99.90;;;;;;5063978;28;20171;-80
2022/03/16 09:43:29;;;;;;;17.95;10.82;;;12.80;99.90;;;;;;5044144;28;20215;-81
2022/03/16 09:45:57;;;;;;;45.80;13.07;;;12.70;99.90;;;;;;5058392;28;20187;-82
2022/03/16 09:48:23;;;;;;;25.90;11.20;;;12.50;99.90;;;;;;5059577;28;20151;-81
2022/03/16 09:50:51;;;;;;;24.48;11.60;;;12.60;99.90;;;;;;5043892;28;20171;-80
2022/03/16 09:53:19;;;;;;;16.80;12.10;;;12.80;99.90;;;;;;5058819;28;20175;-87
2022/03/16 09:55:45;;;;;;;29.52;12.25;;;12.90;99.90;;;;;;5037476;28;20171;-89
2022/03/16 09:58:12;;;;;;;19.77;9.73;;;13.00;99.90;;;;;;5055798;28;20186;-91
2022/03/16 10:00:38;;;;;;;15.25;10.50;;;13.00;99.90;;;;;;5055300;28;20187;-91
2022/03/16 10:03:04;;;;;;;14.77;9.45;;;13.10;99.90;;;;;;5050698;28;20217;-85
2022/03/16 10:05:31;;;;;;;22.90;12.48;;;13.40;99.90;;;;;;5032861;28;20176;-91
2022/03/16 10:08:02;;;;;;;22.95;12.55;;;13.50;99.90;;;;;;5056582;28;20163;-95
2022/03/16 10:13:23;;;;;;;31.30;11.07;;;13.60;99.90;;;;;;5060017;28;20213;-92
2022/03/16 10:15:50;;;;;;;24.35;10.27;;;13.90;99.90;;;;;;5045395;28;20621;-88
2022/03/16 10:18:19;;;;;;;39.30;10.02;;;14.20;99.90;;;;;;5047516;28;20164;-93
2022/03/16 10:20:45;;;;;;;40.75;11.18;;;14.20;99.90;;;;;;5040318;28;20191;-88
2022/03/16 10:23:14;;;;;;;50.58;13.18;;;14.20;99.90;;;;;;5048076;28;20210;-87
2022/03/16 10:25:41;;;;;;;32.03;10.20;;;14.20;99.90;;;;;;5056205;28;20176;-86
2022/03/16 10:28:12;;;;;;;14.32;9.65;;;14.30;99.90;;;;;;5073808;28;20163;-87
2022/03/16 10:30:54;;;;;;;14.88;9.73;;;14.40;99.90;;;;;;5052727;28;20195;-81
2022/03/16 10:33:20;;;;;;;17.63;9.50;;;14.30;99.90;;;;;;5038989;28;20167;-82
2022/03/16 10:36:05;;;;;;;16.90;9.43;;;14.30;99.90;;;;;;5057896;28;20654;-85
2022/03/16 10:38:36;;;;;;;16.92;10.00;;;14.50;99.90;;;;;;5039461;28;20193;-84
2022/03/16 10:41:14;;;;;;;20.20;9.10;;;14.60;99.90;;;;;;5042679;28;20167;-82
2022/03/16 10:46:40;;;;;;;10.65;8.05;;;14.70;99.90;;;;;;5059175;28;20205;-83
2022/03/16 10:49:10;;;;;;;12.60;9.23;;;14.70;99.90;;;;;;5038265;28;20166;-84
2022/03/16 10:51:37;;;;;;;19.67;11.00;;;14.70;99.90;;;;;;5055359;28;20170;-84
2022/03/16 10:54:04;;;;;;;14.70;9.40;;;14.60;99.90;;;;;;5042879;28;20171;-87
2022/03/16 10:56:31;;;;;;;16.88;9.38;;;14.80;99.90;;;;;;5040840;28;20210;-83
2022/03/16 10:58:59;;;;;;;18.70;9.82;;;14.60;99.90;;;;;;5042815;28;20191;-85
2022/03/16 11:01:27;;;;;;;18.50;9.10;;;14.70;99.90;;;;;;5058640;28;20209;-81
2022/03/16 11:03:58;;;;;;;15.25;9.23;;;14.60;99.90;;;;;;5058351;28;20289;-84
2022/03/16 11:06:25;;;;;;;11.18;9.30;;;14.70;99.90;;;;;;5056893;28;20179;-87
2022/03/16 11:08:51;;;;;;;15.13;9.23;;;15.00;99.90;;;;;;5038820;28;20253;-86
2022/03/16 11:14:03;;;;;;;11.90;9.02;;;15.30;99.90;;;;;;5055840;28;20175;-84
2022/03/16 11:16:31;;;;;;;13.50;9.23;;;15.40;99.90;;;;;;5037237;28;20194;-85
2022/03/16 11:19:05;;;;;;;29.73;10.77;;;15.40;99.90;;;;;;5054544;28;20621;-85
2022/03/16 11:21:58;;;;;;;14.98;8.75;;;15.30;99.90;;;;;;5037030;28;20212;-85
2022/03/16 11:24:26;;;;;;;15.90;9.55;;;15.10;99.90;;;;;;5038531;28;20215;-79
2022/03/16 11:27:10;;;;;;;13.00;9.00;;;15.20;99.90;;;;;;5054422;28;20682;-82
2022/03/16 11:30:12;;;;;;;16.08;9.40;;;15.30;99.90;;;;;;5054407;28;20168;-85
2022/03/16 11:32:43;;;;;;;14.25;9.80;;;15.20;99.90;;;;;;5054590;28;20178;-81
2022/03/16 11:35:12;;;;;;;18.73;11.13;;;15.20;99.90;;;;;;5036871;28;20178;-84
2022/03/16 11:37:46;;;;;;;20.10;10.40;;;15.40;99.90;;;;;;5036147;28;20195;-81
2022/03/16 11:40:22;;;;;;;13.05;9.82;;;15.30;99.90;;;;;;5054472;28;20163;-83
2022/03/16 11:43:04;;;;;;;16.15;10.02;;;15.00;99.90;;;;;;5055313;28;20210;-84
2022/03/16 11:45:54;;;;;;;11.57;8.98;;;15.20;99.90;;;;;;5054846;28;20163;-82
2022/03/16 11:48:33;;;;;;;13.40;8.90;;;15.30;99.90;;;;;;5055515;28;20195;-86
2022/03/16 11:51:13;;;;;;;17.33;9.48;;;15.40;99.90;;;;;;5054642;28;20163;-86
2022/03/16 11:53:49;;;;;;;20.65;9.75;;;15.70;99.90;;;;;;5037462;28;20179;-82
2022/03/16 11:56:23;;;;;;;16.52;8.80;;;15.70;99.90;;;;;;5037000;28;20198;-84
2022/03/16 11:58:54;;;;;;;18.20;9.70;;;15.80;99.90;;;;;;5054490;28;20167;-84
2022/03/16 12:01:28;;;;;;;20.38;9.70;;;15.60;99.90;;;;;;5036965;28;20168;-83
2022/03/16 12:04:14;;;;;;;19.30;10.23;;;15.60;99.90;;;;;;5055716;28;20221;-86
2022/03/16 12:07:05;;;;;;;19.38;9.50;;;15.80;99.90;;;;;;5056000;28;20183;-82
2022/03/16 12:09:44;;;;;;;13.20;8.55;;;15.60;99.90;;;;;;5053769;28;20171;-87
2022/03/16 12:15:11;;;;;;;12.52;8.90;;;15.60;99.90;;;;;;5054108;28;20271;-86
2022/03/16 12:18:07;;;;;;;21.92;9.80;;;15.90;99.90;;;;;;5053970;28;20252;-88
2022/03/16 12:20:38;;;;;;;13.05;9.10;;;15.80;99.90;;;;;;5058855;28;20186;-83
2022/03/16 12:23:11;;;;;;;17.50;9.63;;;15.80;99.90;;;;;;5065496;28;20202;-83
2022/03/16 12:25:39;;;;;;;17.27;10.25;;;15.70;99.90;;;;;;5065951;28;20171;-87
2022/03/16 12:31:24;;;;;;;16.42;9.20;;;15.70;99.90;;;;;;5054739;28;20213;-84
2022/03/16 12:33:52;;;;;;;11.68;8.35;;;15.80;99.90;;;;;;5037216;28;20257;-82
2022/03/16 12:36:32;;;;;;;14.77;9.65;;;15.80;99.90;;;;;;5035596;28;20244;-87
2022/03/16 12:39:07;;;;;;;18.67;8.90;;;15.80;99.90;;;;;;5036423;28;20167;-86
2022/03/16 12:44:19;;;;;;;17.77;8.77;;;15.70;99.90;;;;;;5054298;28;20301;-85
2022/03/16 12:47:02;;;;;;;14.15;7.93;;;15.70;99.90;;;;;;5054606;28;20253;-87
2022/03/16 12:49:28;;;;;;;13.23;8.90;;;15.60;99.90;;;;;;5052500;28;20175;-85
2022/03/16 12:52:00;;;;;;;21.30;7.75;;;15.70;99.90;;;;;;5054364;28;20182;-84
2022/03/16 12:54:36;;;;;;;14.95;8.50;;;15.80;99.90;;;;;;5053618;28;20251;-85
2022/03/16 12:57:01;;;;;;;11.70;8.82;;;15.60;99.90;;;;;;5053494;28;20179;-83
2022/03/16 12:59:31;;;;;;;20.88;9.70;;;15.50;99.90;;;;;;5054198;28;20250;-88